createdAt,value
2022-08-20T00:00:15.082Z,14.70
2022-08-20T00:01:16.031Z,10.60
2022-08-20T00:02:15.144Z,14.90
2022-08-20T00:03:15.043Z,13.10
2022-08-20T00:04:15.026Z,14.60
2022-08-20T00:05:15.308Z,10.80
2022-08-20T00:06:14.998Z,10.10
2022-08-20T00:07:14.980Z,11.30
2022-08-20T00:08:14.971Z,13.50
2022-08-20T00:09:14.972Z,10.50
2022-08-20T00:10:14.965Z,10.40
2022-08-20T00:11:14.975Z,10.60
2022-08-20T00:12:14.930Z,10.00
2022-08-20T00:13:18.210Z,8.40
2022-08-20T00:14:14.911Z,10.10
2022-08-20T00:15:14.893Z,8.90
2022-08-20T00:16:14.903Z,9.50
2022-08-20T00:17:14.882Z,7.60
2022-08-20T00:18:14.877Z,9.00
2022-08-20T00:19:14.845Z,7.00
2022-08-20T00:20:15.175Z,6.60
2022-08-20T00:21:18.748Z,5.20
2022-08-20T00:22:14.839Z,6.30
2022-08-20T00:23:14.818Z,6.70
2022-08-20T00:24:14.789Z,8.40
2022-08-20T00:25:14.809Z,6.30
2022-08-20T00:26:14.807Z,5.50
2022-08-20T00:27:14.786Z,4.90
2022-08-20T00:28:14.754Z,4.90
2022-08-20T00:29:14.752Z,2.90
2022-08-20T00:30:14.726Z,4.60
2022-08-20T00:31:14.723Z,10.10
2022-08-20T00:32:21.922Z,7.80
2022-08-20T00:33:14.711Z,4.10
2022-08-20T00:34:14.684Z,4.80
2022-08-20T00:35:14.659Z,5.10
2022-08-20T00:36:14.641Z,5.70
2022-08-20T00:37:14.642Z,7.20
2022-08-20T00:38:14.891Z,3.60
2022-08-20T00:39:14.626Z,9.80
2022-08-20T00:40:22.496Z,4.90
2022-08-20T00:41:15.592Z,4.80
2022-08-20T00:42:14.582Z,3.80
2022-08-20T00:43:14.565Z,3.10
2022-08-20T00:44:14.611Z,3.10
2022-08-20T00:45:14.560Z,3.20
2022-08-20T00:46:14.545Z,4.40
2022-08-20T00:47:14.524Z,4.80
2022-08-20T00:48:14.512Z,5.60
2022-08-20T00:49:14.508Z,6.60
2022-08-20T00:50:14.695Z,5.70
2022-08-20T00:51:14.493Z,5.50
2022-08-20T00:52:14.485Z,12.70
2022-08-20T00:53:14.456Z,6.20
2022-08-20T00:54:14.448Z,5.70
2022-08-20T00:55:14.417Z,6.10
2022-08-20T00:56:14.736Z,6.00
2022-08-20T00:57:14.406Z,5.30
2022-08-20T00:58:14.388Z,6.00
2022-08-20T00:59:14.392Z,6.30
2022-08-20T01:00:14.369Z,6.60
2022-08-20T01:01:14.362Z,4.30
2022-08-20T01:02:14.666Z,5.30
2022-08-20T01:03:14.327Z,6.60
2022-08-20T01:04:14.350Z,5.20
2022-08-20T01:05:14.330Z,6.40
2022-08-20T01:06:14.289Z,5.90
2022-08-20T01:07:14.280Z,5.50
2022-08-20T01:08:21.675Z,5.10
2022-08-20T01:09:14.277Z,5.50
2022-08-20T01:10:14.254Z,5.70
2022-08-20T01:11:15.250Z,5.20
2022-08-20T01:12:14.372Z,5.40
2022-08-20T01:13:14.219Z,5.20
2022-08-20T01:14:14.208Z,6.00
2022-08-20T01:15:14.199Z,5.80
2022-08-20T01:16:14.181Z,6.20
2022-08-20T01:17:14.184Z,7.60
2022-08-20T01:18:14.446Z,5.30
2022-08-20T01:19:29.409Z,5.80
2022-08-20T01:20:15.144Z,7.50
2022-08-20T01:21:14.362Z,8.00
2022-08-20T01:22:14.101Z,7.90
2022-08-20T01:23:14.091Z,8.10
2022-08-20T01:24:14.083Z,9.30
2022-08-20T01:25:14.075Z,9.40
2022-08-20T01:26:14.075Z,11.80
2022-08-20T01:27:14.322Z,11.70
2022-08-20T01:28:14.033Z,13.10
2022-08-20T01:29:14.013Z,15.00
2022-08-20T01:30:14.003Z,16.70
2022-08-20T01:31:14.233Z,18.80
2022-08-20T01:32:14.315Z,20.30
2022-08-20T01:33:13.988Z,25.00
2022-08-20T01:34:13.955Z,22.60
2022-08-20T01:35:13.943Z,23.50
2022-08-20T01:36:14.225Z,17.80
2022-08-20T01:37:13.938Z,16.60
2022-08-20T01:38:13.933Z,13.20
2022-08-20T01:39:13.910Z,10.70
2022-08-20T01:40:14.301Z,9.00
2022-08-20T01:41:13.887Z,9.70
2022-08-20T01:42:13.867Z,12.10
2022-08-20T01:43:13.861Z,10.50
2022-08-20T01:44:16.882Z,11.90
2022-08-20T01:45:13.876Z,12.20
2022-08-20T01:46:14.182Z,10.60
2022-08-20T01:47:15.160Z,12.10
2022-08-20T01:48:13.792Z,9.80
2022-08-20T01:49:16.447Z,14.60
2022-08-20T01:50:14.805Z,12.60
2022-08-20T01:51:13.750Z,13.70
2022-08-20T01:52:14.072Z,12.70
2022-08-20T01:53:13.745Z,13.70
2022-08-20T01:54:13.733Z,11.80
2022-08-20T01:55:13.713Z,13.90
2022-08-20T01:56:14.025Z,16.20
2022-08-20T01:57:13.694Z,15.80
2022-08-20T01:58:13.686Z,16.50
2022-08-20T01:59:13.653Z,14.10
2022-08-20T02:00:19.854Z,16.10
2022-08-20T02:01:14.882Z,18.70
2022-08-20T02:02:13.624Z,20.00
2022-08-20T02:03:13.616Z,15.60
2022-08-20T02:04:15.275Z,19.00
2022-08-20T02:05:13.600Z,23.70
2022-08-20T02:06:13.583Z,19.60
2022-08-20T02:07:13.826Z,19.50
2022-08-20T02:08:13.556Z,22.90
2022-08-20T02:09:16.148Z,18.80
2022-08-20T02:10:13.548Z,21.30
2022-08-20T02:11:13.518Z,23.60
2022-08-20T02:12:13.826Z,23.70
2022-08-20T02:13:13.489Z,21.60
2022-08-20T02:14:13.500Z,20.40
2022-08-20T02:15:13.778Z,23.80
2022-08-20T02:16:13.471Z,24.20
2022-08-20T02:17:13.460Z,24.90
2022-08-20T02:18:13.582Z,22.60
2022-08-20T02:19:13.419Z,25.70
2022-08-20T02:20:13.410Z,25.90
2022-08-20T02:21:13.400Z,24.40
2022-08-20T02:22:13.403Z,22.30
2022-08-20T02:23:13.372Z,21.80
2022-08-20T02:24:13.674Z,22.50
2022-08-20T02:25:13.372Z,23.90
2022-08-20T02:26:13.357Z,20.70
2022-08-20T02:27:13.322Z,24.30
2022-08-20T02:28:13.333Z,22.60
2022-08-20T02:29:13.613Z,20.90
2022-08-20T02:30:27.441Z,24.40
2022-08-20T02:31:14.274Z,23.60
2022-08-20T02:32:24.163Z,23.00
2022-08-20T02:33:14.269Z,25.70
2022-08-20T02:34:21.817Z,24.40
2022-08-20T02:35:14.255Z,23.30
2022-08-20T02:36:13.239Z,27.40
2022-08-20T02:37:13.206Z,24.70
2022-08-20T02:38:13.216Z,25.10
2022-08-20T02:39:13.200Z,25.00
2022-08-20T02:40:13.535Z,25.80
2022-08-20T02:41:13.180Z,24.00
2022-08-20T02:42:13.162Z,25.20
2022-08-20T02:43:13.137Z,25.00
2022-08-20T02:44:13.141Z,24.20
2022-08-20T02:45:18.881Z,22.60
2022-08-20T02:46:14.381Z,25.80
2022-08-20T02:47:13.208Z,26.20
2022-08-20T02:48:13.093Z,27.80
2022-08-20T02:49:13.283Z,28.00
2022-08-20T02:50:13.060Z,26.60
2022-08-20T02:51:13.058Z,27.50
2022-08-20T02:52:13.030Z,24.70
2022-08-20T02:53:13.047Z,27.90
2022-08-20T02:54:13.024Z,25.60
2022-08-20T02:55:23.095Z,26.00
2022-08-20T02:56:13.999Z,25.90
2022-08-20T02:57:12.987Z,24.10
2022-08-20T02:58:12.963Z,27.30
2022-08-20T02:59:19.138Z,28.40
2022-08-20T03:00:14.245Z,24.10
2022-08-20T03:01:12.941Z,25.20
2022-08-20T03:02:12.926Z,27.70
2022-08-20T03:03:12.914Z,27.90
2022-08-20T03:04:13.133Z,27.10
2022-08-20T03:05:12.875Z,28.60
2022-08-20T03:06:12.909Z,26.70
2022-08-20T03:07:12.930Z,29.40
2022-08-20T03:08:12.847Z,23.80
2022-08-20T03:09:12.842Z,28.90
2022-08-20T03:10:13.086Z,26.70
2022-08-20T03:11:12.806Z,26.30
2022-08-20T03:12:12.822Z,29.90
2022-08-20T03:13:12.808Z,26.50
2022-08-20T03:14:12.790Z,28.40
2022-08-20T03:15:17.514Z,26.70
2022-08-20T03:16:14.083Z,28.50
2022-08-20T03:17:12.729Z,29.80
2022-08-20T03:18:12.729Z,25.90
2022-08-20T03:19:12.718Z,30.00
2022-08-20T03:20:13.013Z,25.70
2022-08-20T03:21:14.818Z,27.60
2022-08-20T03:22:12.694Z,28.70
2022-08-20T03:23:12.661Z,28.80
2022-08-20T03:24:12.650Z,29.60
2022-08-20T03:25:12.661Z,25.50
2022-08-20T03:26:12.846Z,27.10
2022-08-20T03:27:12.612Z,23.50
2022-08-20T03:28:12.611Z,27.40
2022-08-20T03:29:12.592Z,27.90
2022-08-20T03:30:12.582Z,27.80
2022-08-20T03:31:14.949Z,30.70
2022-08-20T03:32:12.806Z,27.10
2022-08-20T03:33:12.543Z,29.60
2022-08-20T03:34:12.534Z,29.40
2022-08-20T03:35:12.515Z,28.00
2022-08-20T03:36:12.514Z,29.10
2022-08-20T03:37:13.639Z,27.70
2022-08-20T03:38:12.493Z,29.40
2022-08-20T03:39:12.475Z,27.00
2022-08-20T03:40:12.496Z,27.90
2022-08-20T03:41:12.956Z,27.80
2022-08-20T03:42:12.445Z,25.80
2022-08-20T03:43:12.563Z,27.50
2022-08-20T03:44:12.430Z,26.20
2022-08-20T03:45:15.044Z,26.60
2022-08-20T03:46:22.288Z,29.10
2022-08-20T03:47:13.393Z,29.90
2022-08-20T03:48:12.389Z,30.00
2022-08-20T03:49:12.374Z,26.20
2022-08-20T03:50:14.809Z,24.80
2022-08-20T03:51:13.330Z,26.10
2022-08-20T03:52:12.342Z,24.60
2022-08-20T03:53:14.640Z,29.30
2022-08-20T03:54:12.314Z,27.10
2022-08-20T03:55:12.601Z,32.40
2022-08-20T03:56:12.273Z,27.80
2022-08-20T03:57:12.663Z,27.60
2022-08-20T03:58:12.267Z,28.70
2022-08-20T03:59:12.241Z,26.90
2022-08-20T04:00:12.430Z,28.50
2022-08-20T04:01:45.674Z,27.30
2022-08-20T04:02:13.259Z,30.30
2022-08-20T04:03:12.424Z,29.60
2022-08-20T04:04:12.903Z,27.70
2022-08-20T04:05:12.172Z,28.90
2022-08-20T04:06:12.181Z,30.80
2022-08-20T04:07:12.145Z,29.80
2022-08-20T04:08:12.450Z,26.90
2022-08-20T04:09:12.468Z,29.00
2022-08-20T04:10:12.114Z,30.90
2022-08-20T04:11:12.098Z,31.10
2022-08-20T04:12:12.087Z,27.80
2022-08-20T04:13:12.089Z,30.10
2022-08-20T04:14:17.370Z,30.20
2022-08-20T04:15:13.048Z,29.70
2022-08-20T04:16:14.747Z,31.10
2022-08-20T04:17:12.040Z,31.90
2022-08-20T04:18:12.032Z,31.40
2022-08-20T04:19:12.038Z,30.90
2022-08-20T04:20:12.012Z,31.50
2022-08-20T04:21:11.980Z,31.90
2022-08-20T04:22:11.985Z,28.90
2022-08-20T04:23:12.277Z,34.90
2022-08-20T04:24:22.592Z,30.70
2022-08-20T04:25:16.002Z,30.80
2022-08-20T04:26:11.935Z,31.00
2022-08-20T04:27:11.917Z,29.80
2022-08-20T04:28:11.902Z,31.70
2022-08-20T04:29:12.207Z,29.50
2022-08-20T04:30:11.897Z,32.20
2022-08-20T04:31:11.868Z,32.10
2022-08-20T04:32:11.868Z,35.00
2022-08-20T04:33:11.848Z,32.70
2022-08-20T04:34:11.877Z,34.00
2022-08-20T04:35:12.118Z,32.90
2022-08-20T04:36:11.805Z,32.40
2022-08-20T04:37:17.283Z,30.20
2022-08-20T04:38:12.797Z,35.00
2022-08-20T04:39:11.767Z,32.80
2022-08-20T04:40:11.779Z,35.50
2022-08-20T04:41:21.084Z,32.30
2022-08-20T04:42:12.750Z,31.30
2022-08-20T04:43:12.438Z,31.10
2022-08-20T04:44:11.727Z,34.60
2022-08-20T04:45:11.699Z,31.30
2022-08-20T04:46:11.688Z,30.70
2022-08-20T04:47:11.721Z,32.00
2022-08-20T04:48:15.016Z,30.90
2022-08-20T04:49:11.982Z,31.20
2022-08-20T04:50:11.652Z,32.20
2022-08-20T04:51:11.644Z,34.70
2022-08-20T04:52:11.609Z,29.30
2022-08-20T04:53:11.621Z,30.10
2022-08-20T04:54:11.890Z,28.10
2022-08-20T04:55:11.598Z,27.50
2022-08-20T04:56:11.561Z,29.70
2022-08-20T04:57:11.874Z,29.40
2022-08-20T04:58:11.551Z,30.90
2022-08-20T04:59:11.553Z,32.80
2022-08-20T05:00:11.521Z,27.00
2022-08-20T05:01:11.587Z,28.60
2022-08-20T05:02:11.515Z,25.20
2022-08-20T05:03:11.754Z,25.90
2022-08-20T05:04:11.485Z,22.80
2022-08-20T05:05:11.478Z,27.00
2022-08-20T05:06:11.466Z,26.60
2022-08-20T05:07:11.458Z,24.70
2022-08-20T05:08:19.832Z,26.90
2022-08-20T05:09:12.656Z,25.40
2022-08-20T05:10:11.412Z,29.40
2022-08-20T05:11:34.845Z,29.10
2022-08-20T05:12:12.380Z,26.90
2022-08-20T05:13:11.367Z,25.40
2022-08-20T05:14:11.400Z,23.70
2022-08-20T05:15:11.601Z,26.70
2022-08-20T05:16:11.340Z,25.20
2022-08-20T05:17:11.341Z,22.70
2022-08-20T05:18:11.322Z,24.00
2022-08-20T05:19:11.304Z,23.50
2022-08-20T05:20:11.293Z,25.60
2022-08-20T05:21:11.582Z,23.40
2022-08-20T05:22:11.257Z,23.20
2022-08-20T05:23:11.251Z,22.40
2022-08-20T05:24:11.250Z,21.00
2022-08-20T05:25:11.263Z,20.40
2022-08-20T05:26:11.221Z,22.80
2022-08-20T05:27:19.843Z,22.40
2022-08-20T05:28:12.181Z,21.90
2022-08-20T05:29:11.196Z,22.40
2022-08-20T05:30:11.790Z,21.30
2022-08-20T05:31:11.167Z,23.00
2022-08-20T05:32:11.176Z,21.60
2022-08-20T05:33:11.146Z,24.50
2022-08-20T05:34:11.896Z,23.20
2022-08-20T05:35:11.104Z,21.40
2022-08-20T05:36:11.094Z,22.20
2022-08-20T05:37:11.083Z,22.70
2022-08-20T05:38:11.388Z,21.60
2022-08-20T05:39:11.073Z,21.50
2022-08-20T05:40:11.139Z,21.90
2022-08-20T05:41:11.037Z,22.40
2022-08-20T05:42:12.017Z,24.10
2022-08-20T05:43:11.016Z,21.20
2022-08-20T05:44:11.038Z,23.50
2022-08-20T05:45:11.385Z,23.30
2022-08-20T05:46:10.985Z,20.90
2022-08-20T05:47:10.958Z,21.30
2022-08-20T05:48:10.963Z,21.50
2022-08-20T05:49:11.212Z,22.60
2022-08-20T05:50:10.930Z,20.10
2022-08-20T05:51:15.122Z,21.80
2022-08-20T05:52:10.920Z,23.60
2022-08-20T05:53:10.902Z,21.50
2022-08-20T05:54:11.216Z,23.40
2022-08-20T05:55:10.870Z,21.60
2022-08-20T05:56:10.860Z,22.70
2022-08-20T05:57:10.865Z,25.40
2022-08-20T05:58:10.832Z,25.10
2022-08-20T05:59:11.132Z,21.60
2022-08-20T06:00:10.810Z,22.10
2022-08-20T06:01:10.840Z,24.00
2022-08-20T06:02:10.797Z,19.70
2022-08-20T06:03:10.795Z,20.70
2022-08-20T06:04:11.000Z,22.40
2022-08-20T06:05:10.754Z,20.30
2022-08-20T06:06:28.489Z,24.30
2022-08-20T06:07:11.740Z,23.80
2022-08-20T06:08:10.728Z,23.20
2022-08-20T06:09:10.714Z,22.50
2022-08-20T06:10:10.714Z,25.30
2022-08-20T06:11:10.686Z,23.40
2022-08-20T06:12:10.667Z,22.30
2022-08-20T06:13:13.976Z,23.00
2022-08-20T06:14:10.982Z,22.00
2022-08-20T06:15:10.649Z,23.00
2022-08-20T06:16:10.633Z,24.20
2022-08-20T06:17:10.611Z,22.90
2022-08-20T06:18:27.852Z,22.60
2022-08-20T06:19:11.828Z,25.00
2022-08-20T06:20:10.590Z,23.50
2022-08-20T06:21:10.583Z,24.80
2022-08-20T06:22:19.971Z,22.80
2022-08-20T06:23:11.555Z,25.00
2022-08-20T06:24:10.541Z,23.50
2022-08-20T06:25:10.851Z,24.90
2022-08-20T06:26:10.522Z,20.60
2022-08-20T06:27:10.515Z,28.20
2022-08-20T06:28:10.496Z,26.50
2022-08-20T06:29:10.474Z,26.20
2022-08-20T06:30:10.476Z,24.20
2022-08-20T06:31:10.766Z,20.60
2022-08-20T06:32:10.456Z,22.50
2022-08-20T06:33:10.438Z,21.00
2022-08-20T06:34:10.613Z,22.10
2022-08-20T06:35:10.416Z,17.20
2022-08-20T06:36:10.385Z,21.50
2022-08-20T06:37:10.376Z,18.10
2022-08-20T06:38:10.363Z,16.70
2022-08-20T06:39:10.369Z,17.10
2022-08-20T06:40:10.494Z,16.50
2022-08-20T06:41:10.349Z,16.10
2022-08-20T06:42:10.316Z,18.00
2022-08-20T06:43:10.321Z,20.10
2022-08-20T06:44:10.310Z,17.20
2022-08-20T06:45:10.511Z,18.30
2022-08-20T06:46:10.281Z,16.00
2022-08-20T06:47:10.285Z,16.10
2022-08-20T06:48:10.264Z,15.00
2022-08-20T06:49:11.238Z,15.10
2022-08-20T06:50:10.233Z,15.00
2022-08-20T06:51:10.409Z,15.40
2022-08-20T06:52:11.643Z,13.30
2022-08-20T06:53:10.222Z,14.00
2022-08-20T06:54:10.202Z,15.60
2022-08-20T06:55:10.200Z,15.10
2022-08-20T06:56:10.162Z,15.70
2022-08-20T06:57:10.171Z,15.00
2022-08-20T06:58:10.437Z,14.00
2022-08-20T06:59:11.121Z,16.20
2022-08-20T07:00:10.116Z,13.10
2022-08-20T07:01:11.024Z,12.00
2022-08-20T07:02:10.096Z,12.30
2022-08-20T07:03:10.320Z,13.80
2022-08-20T07:04:10.053Z,13.60
2022-08-20T07:05:10.058Z,16.20
2022-08-20T07:06:10.046Z,12.70
2022-08-20T07:07:10.034Z,13.20
2022-08-20T07:08:10.019Z,13.20
2022-08-20T07:09:17.258Z,13.70
2022-08-20T07:10:09.987Z,15.00
2022-08-20T07:11:09.992Z,14.40
2022-08-20T07:12:10.292Z,15.70
2022-08-20T07:13:09.965Z,14.30
2022-08-20T07:14:09.939Z,15.40
2022-08-20T07:15:09.929Z,16.20
2022-08-20T07:16:10.259Z,15.60
2022-08-20T07:17:12.315Z,17.80
2022-08-20T07:18:09.889Z,17.90
2022-08-20T07:19:09.902Z,17.40
2022-08-20T07:20:09.874Z,18.10
2022-08-20T07:21:09.861Z,15.70
2022-08-20T07:22:10.152Z,16.30
2022-08-20T07:23:09.845Z,16.70
2022-08-20T07:24:09.847Z,18.30
2022-08-20T07:25:09.811Z,17.50
2022-08-20T07:26:09.807Z,17.10
2022-08-20T07:27:09.796Z,18.00
2022-08-20T07:28:10.153Z,16.40
2022-08-20T07:29:09.776Z,14.70
2022-08-20T07:30:15.025Z,15.10
2022-08-20T07:31:13.574Z,14.90
2022-08-20T07:32:09.797Z,15.20
2022-08-20T07:33:09.713Z,16.10
2022-08-20T07:34:09.715Z,14.90
2022-08-20T07:35:10.369Z,15.40
2022-08-20T07:36:09.698Z,15.20
2022-08-20T07:37:09.996Z,14.00
2022-08-20T07:38:09.667Z,14.80
2022-08-20T07:39:09.646Z,13.70
2022-08-20T07:40:09.678Z,15.00
2022-08-20T07:41:09.617Z,13.70
2022-08-20T07:42:09.629Z,13.00
2022-08-20T07:43:09.931Z,13.90
2022-08-20T07:44:09.589Z,12.20
2022-08-20T07:45:09.612Z,11.80
2022-08-20T07:46:09.918Z,11.90
2022-08-20T07:47:09.581Z,11.10
2022-08-20T07:48:09.539Z,12.60
2022-08-20T07:49:09.529Z,12.10
2022-08-20T07:50:09.532Z,10.00
2022-08-20T07:51:09.502Z,10.20
2022-08-20T07:52:09.761Z,10.50
2022-08-20T07:53:09.495Z,10.90
2022-08-20T07:54:09.462Z,8.30
2022-08-20T07:55:09.462Z,8.00
2022-08-20T07:56:09.469Z,8.70
2022-08-20T07:57:09.708Z,8.90
2022-08-20T07:58:09.425Z,8.50
2022-08-20T07:59:09.632Z,8.60
2022-08-20T08:00:09.415Z,9.40
2022-08-20T08:01:09.432Z,9.30
2022-08-20T08:02:09.587Z,10.10
2022-08-20T08:03:09.367Z,9.20
2022-08-20T08:04:09.676Z,11.30
2022-08-20T08:05:09.345Z,10.30
2022-08-20T08:06:09.351Z,9.20
2022-08-20T08:07:09.326Z,10.90
2022-08-20T08:08:09.306Z,11.40
2022-08-20T08:09:15.989Z,10.70
2022-08-20T08:10:09.310Z,11.10
2022-08-20T08:11:09.290Z,9.80
2022-08-20T08:12:09.258Z,9.40
2022-08-20T08:13:09.269Z,9.80
2022-08-20T08:14:09.253Z,8.70
2022-08-20T08:15:09.428Z,8.70
2022-08-20T08:16:09.219Z,9.60
2022-08-20T08:17:09.211Z,10.60
2022-08-20T08:18:09.269Z,9.20
2022-08-20T08:19:09.233Z,8.80
2022-08-20T08:20:09.214Z,10.30
2022-08-20T08:21:09.175Z,9.10
2022-08-20T08:22:09.452Z,9.60
2022-08-20T08:23:09.132Z,8.70
2022-08-20T08:24:10.146Z,9.50
2022-08-20T08:25:09.136Z,9.80
2022-08-20T08:26:09.115Z,9.60
2022-08-20T08:27:10.385Z,10.60
2022-08-20T08:28:09.077Z,9.70
2022-08-20T08:29:09.086Z,11.20
2022-08-20T08:30:09.068Z,9.60
2022-08-20T08:31:09.066Z,9.20
2022-08-20T08:32:09.025Z,11.10
2022-08-20T08:33:09.225Z,9.30
2022-08-20T08:34:09.019Z,11.10
2022-08-20T08:35:08.996Z,11.10
2022-08-20T08:36:09.004Z,11.80
2022-08-20T08:37:08.992Z,12.40
2022-08-20T08:38:08.957Z,9.00
2022-08-20T08:39:10.218Z,9.60
2022-08-20T08:40:09.007Z,9.90
2022-08-20T08:41:08.950Z,9.60
2022-08-20T08:42:08.918Z,9.40
2022-08-20T08:43:09.908Z,10.70
2022-08-20T08:44:08.892Z,8.90
2022-08-20T08:45:09.163Z,9.20
2022-08-20T08:46:08.875Z,9.10
2022-08-20T08:47:08.851Z,10.40
2022-08-20T08:48:08.854Z,9.30
2022-08-20T08:49:08.831Z,10.10
2022-08-20T08:50:08.844Z,9.40
2022-08-20T08:51:08.815Z,8.80
2022-08-20T08:52:08.798Z,9.50
2022-08-20T08:53:08.795Z,8.70
2022-08-20T08:54:08.786Z,8.70
2022-08-20T08:55:08.767Z,8.50
2022-08-20T08:56:08.853Z,9.80
2022-08-20T08:57:08.749Z,8.30
2022-08-20T08:58:16.982Z,8.90
2022-08-20T08:59:09.705Z,11.20
2022-08-20T09:00:08.715Z,7.90
2022-08-20T09:01:13.694Z,8.10
2022-08-20T09:02:09.712Z,7.50
2022-08-20T09:03:08.686Z,9.30
2022-08-20T09:04:08.661Z,8.00
2022-08-20T09:05:08.957Z,7.80
2022-08-20T09:06:08.642Z,9.40
2022-08-20T09:07:08.626Z,9.20
2022-08-20T09:08:08.607Z,8.50
2022-08-20T09:09:08.589Z,9.10
2022-08-20T09:10:08.620Z,8.90
2022-08-20T09:11:08.869Z,8.40
2022-08-20T09:12:08.575Z,11.50
2022-08-20T09:13:08.552Z,10.70
2022-08-20T09:14:08.553Z,12.70
2022-08-20T09:15:08.535Z,11.80
2022-08-20T09:16:08.771Z,12.30
2022-08-20T09:17:08.532Z,13.40
2022-08-20T09:18:08.504Z,12.30
2022-08-20T09:19:08.743Z,13.70
2022-08-20T09:20:08.498Z,14.00
2022-08-20T09:21:08.456Z,14.30
2022-08-20T09:22:08.478Z,15.10
2022-08-20T09:23:08.477Z,14.70
2022-08-20T09:24:08.736Z,14.90
2022-08-20T09:25:08.434Z,15.00
2022-08-20T09:26:08.395Z,14.80
2022-08-20T09:27:08.386Z,14.60
2022-08-20T09:28:08.389Z,15.00
2022-08-20T09:29:08.394Z,15.80
2022-08-20T09:30:08.350Z,22.80
2022-08-20T09:31:08.336Z,16.90
2022-08-20T09:32:08.341Z,19.20
2022-08-20T09:33:08.308Z,19.50
2022-08-20T09:34:08.321Z,20.70
2022-08-20T09:35:09.545Z,19.10
2022-08-20T09:36:28.711Z,19.00
2022-08-20T09:37:09.269Z,19.40
2022-08-20T09:38:08.280Z,20.40
2022-08-20T09:39:08.247Z,24.10
2022-08-20T09:40:08.314Z,23.60
2022-08-20T09:41:08.234Z,23.80
2022-08-20T09:42:08.230Z,22.70
2022-08-20T09:43:08.214Z,22.30
2022-08-20T09:44:08.196Z,24.90
2022-08-20T09:45:10.814Z,24.00
2022-08-20T09:46:08.184Z,23.50
2022-08-20T09:47:08.162Z,24.30
2022-08-20T09:48:10.440Z,24.00
2022-08-20T09:49:10.483Z,23.60
2022-08-20T09:50:08.117Z,25.10
2022-08-20T09:51:08.116Z,24.40
2022-08-20T09:52:08.084Z,24.50
2022-08-20T09:53:08.338Z,25.00
2022-08-20T09:54:08.078Z,24.90
2022-08-20T09:55:08.068Z,25.40
2022-08-20T09:56:08.046Z,24.60
2022-08-20T09:57:08.057Z,24.60
2022-08-20T09:58:08.040Z,22.80
2022-08-20T09:59:08.040Z,22.90
2022-08-20T10:00:08.021Z,23.60
2022-08-20T10:01:14.364Z,21.30
2022-08-20T10:02:09.043Z,21.10
2022-08-20T10:03:08.347Z,21.00
2022-08-20T10:04:07.961Z,20.10
2022-08-20T10:05:07.980Z,21.00
2022-08-20T10:06:07.942Z,20.10
2022-08-20T10:07:07.925Z,19.10
2022-08-20T10:08:07.903Z,20.20
2022-08-20T10:09:08.226Z,19.70
2022-08-20T10:10:07.881Z,21.00
2022-08-20T10:11:07.872Z,19.90
2022-08-20T10:12:07.872Z,22.50
2022-08-20T10:13:07.863Z,22.00
2022-08-20T10:14:08.173Z,22.20
2022-08-20T10:15:07.845Z,24.10
2022-08-20T10:16:07.827Z,22.20
2022-08-20T10:17:07.817Z,25.90
2022-08-20T10:18:07.839Z,25.10
2022-08-20T10:19:07.804Z,24.50
2022-08-20T10:20:07.808Z,26.20
2022-08-20T10:21:07.753Z,23.20
2022-08-20T10:22:07.795Z,25.80
2022-08-20T10:23:07.739Z,23.00
2022-08-20T10:24:08.035Z,22.10
2022-08-20T10:25:07.737Z,23.80
2022-08-20T10:26:07.710Z,23.20
2022-08-20T10:27:07.686Z,23.60
2022-08-20T10:28:07.678Z,25.20
2022-08-20T10:29:07.678Z,23.10
2022-08-20T10:30:07.662Z,24.10
2022-08-20T10:31:07.975Z,21.10
2022-08-20T10:32:07.629Z,19.00
2022-08-20T10:33:07.633Z,22.70
2022-08-20T10:34:07.620Z,19.20
2022-08-20T10:35:07.830Z,20.80
2022-08-20T10:36:07.601Z,19.40
2022-08-20T10:37:07.584Z,22.00
2022-08-20T10:38:07.560Z,21.90
2022-08-20T10:39:07.556Z,20.10
2022-08-20T10:40:07.667Z,21.20
2022-08-20T10:41:07.533Z,19.10
2022-08-20T10:42:07.545Z,19.20
2022-08-20T10:43:07.516Z,18.10
2022-08-20T10:44:07.506Z,18.10
2022-08-20T10:45:07.488Z,18.80
2022-08-20T10:46:07.784Z,17.70
2022-08-20T10:47:07.453Z,20.80
2022-08-20T10:48:07.454Z,18.90
2022-08-20T10:49:07.441Z,20.10
2022-08-20T10:50:07.435Z,21.00
2022-08-20T10:51:07.747Z,20.60
2022-08-20T10:52:07.405Z,19.00
2022-08-20T10:53:07.398Z,19.30
2022-08-20T10:54:12.213Z,19.60
2022-08-20T10:55:08.358Z,21.30
2022-08-20T10:56:07.626Z,19.80
2022-08-20T10:57:07.338Z,19.20
2022-08-20T10:58:07.342Z,19.00
2022-08-20T10:59:07.318Z,18.10
2022-08-20T11:00:07.300Z,18.10
2022-08-20T11:01:07.291Z,16.20
2022-08-20T11:02:07.668Z,18.70
2022-08-20T11:03:07.284Z,17.00
2022-08-20T11:04:07.285Z,16.50
2022-08-20T11:05:07.565Z,18.80
2022-08-20T11:06:07.232Z,15.80
2022-08-20T11:07:07.235Z,15.60
2022-08-20T11:08:07.225Z,16.80
2022-08-20T11:09:09.254Z,17.80
2022-08-20T11:10:11.772Z,15.90
2022-08-20T11:11:08.174Z,14.10
2022-08-20T11:12:07.189Z,14.10
2022-08-20T11:13:07.175Z,14.20
2022-08-20T11:14:07.484Z,13.50
2022-08-20T11:15:09.289Z,16.10
2022-08-20T11:16:07.130Z,15.90
2022-08-20T11:17:07.120Z,13.80
2022-08-20T11:18:07.098Z,13.90
2022-08-20T11:19:07.322Z,13.30
2022-08-20T11:20:07.069Z,14.00
2022-08-20T11:21:07.076Z,13.60
2022-08-20T11:22:07.070Z,13.70
2022-08-20T11:23:07.052Z,14.00
2022-08-20T11:24:07.339Z,11.70
2022-08-20T11:25:07.018Z,12.50
2022-08-20T11:26:07.007Z,12.90
2022-08-20T11:27:07.013Z,12.90
2022-08-20T11:28:06.981Z,13.50
2022-08-20T11:29:07.002Z,13.00
2022-08-20T11:30:06.971Z,12.10
2022-08-20T11:31:07.144Z,11.90
2022-08-20T11:32:06.940Z,13.90
2022-08-20T11:33:06.934Z,12.50
2022-08-20T11:34:12.100Z,11.70
2022-08-20T11:35:24.894Z,13.50
2022-08-20T11:36:07.930Z,14.60
2022-08-20T11:37:06.888Z,13.50
2022-08-20T11:38:06.895Z,13.80
2022-08-20T11:39:06.858Z,12.90
2022-08-20T11:40:06.917Z,12.20
2022-08-20T11:41:06.845Z,11.60
2022-08-20T11:42:06.837Z,13.00
2022-08-20T11:43:15.491Z,12.20
2022-08-20T11:44:20.126Z,12.90
2022-08-20T11:45:07.790Z,11.80
2022-08-20T11:46:06.777Z,13.10
2022-08-20T11:47:06.775Z,13.00
2022-08-20T11:48:06.761Z,11.60
2022-08-20T11:49:06.752Z,12.30
2022-08-20T11:50:06.762Z,11.20
2022-08-20T11:51:06.718Z,13.40
2022-08-20T11:52:06.703Z,12.00
2022-08-20T11:53:07.929Z,11.10
2022-08-20T11:54:06.680Z,10.80
2022-08-20T11:55:06.685Z,11.60
2022-08-20T11:56:07.008Z,11.10
2022-08-20T11:57:06.663Z,11.60
2022-08-20T11:58:06.644Z,11.50
2022-08-20T11:59:06.620Z,10.40
2022-08-20T12:00:06.613Z,10.30
2022-08-20T12:01:06.826Z,9.90
2022-08-20T12:02:11.675Z,9.70
2022-08-20T12:03:08.928Z,10.50
2022-08-20T12:04:06.579Z,11.00
2022-08-20T12:05:06.570Z,10.10
2022-08-20T12:06:06.567Z,10.00
2022-08-20T12:07:06.548Z,9.80
2022-08-20T12:08:06.527Z,9.60
2022-08-20T12:09:06.521Z,10.20
2022-08-20T12:10:06.521Z,9.90
2022-08-20T12:11:06.760Z,11.00
2022-08-20T12:12:06.478Z,10.20
2022-08-20T12:13:06.480Z,11.40
2022-08-20T12:14:06.477Z,9.40
2022-08-20T12:15:06.462Z,9.50
2022-08-20T12:16:06.450Z,11.00
2022-08-20T12:18:17.417Z,9.40
2022-08-20T12:19:17.410Z,9.50
2022-08-20T12:20:17.402Z,10.70
2022-08-20T12:21:17.583Z,10.80
2022-08-20T12:22:21.375Z,11.90
2022-08-20T12:23:18.349Z,13.20
2022-08-20T12:24:17.353Z,9.60
2022-08-20T12:25:17.321Z,10.80
2022-08-20T12:26:17.555Z,9.70
2022-08-20T12:27:17.306Z,9.70
2022-08-20T12:28:17.295Z,9.70
2022-08-20T12:29:18.302Z,11.80
2022-08-20T12:30:17.288Z,11.60
2022-08-20T12:31:17.307Z,10.10
2022-08-20T12:32:17.606Z,9.90
2022-08-20T12:33:17.246Z,10.90
2022-08-20T12:34:17.237Z,11.80
2022-08-20T12:35:17.228Z,10.20
2022-08-20T12:36:17.213Z,10.70
2022-08-20T12:37:17.198Z,9.40
2022-08-20T12:38:17.397Z,8.80
2022-08-20T12:39:17.196Z,9.40
2022-08-20T12:40:17.225Z,9.10
2022-08-20T12:41:18.165Z,9.90
2022-08-20T12:42:17.127Z,10.60
2022-08-20T12:43:19.652Z,9.00
2022-08-20T12:44:17.120Z,11.50
2022-08-20T12:45:17.095Z,9.50
2022-08-20T12:46:17.378Z,10.40
2022-08-20T12:47:17.070Z,8.80
2022-08-20T12:48:17.058Z,8.60
2022-08-20T12:49:17.061Z,10.50
2022-08-20T12:50:17.041Z,10.50
2022-08-20T12:51:17.242Z,8.40
2022-08-20T12:52:17.127Z,8.60
2022-08-20T12:53:17.015Z,9.30
2022-08-20T12:54:16.991Z,8.50
2022-08-20T12:55:16.993Z,10.00
2022-08-20T12:56:16.970Z,8.90
2022-08-20T12:57:16.982Z,9.10
2022-08-20T12:58:16.958Z,9.40